14.4°F
Current conditions from King Hill
Updated every 5 minutes
 
  Sunday December 21, 2014

Station Historical Data
Daily Summary for March 18, 2011 Units:  Both    English   Metric
« Previous Day
Next Day »
Daily Weekly Monthly Yearly Custom
  High: Low: Average:
Temperature: 53.5 °F /  11.9 °C 34.0 °F /  1.1 °C 45.1 °F /  7.3 °C
Dew Point: 41.9 °F /  5.5 °C 26.6 °F /  -3 °C 33.8 °F /  1 °C
Humidity: 75% 53% 65%
Wind Speed: 17.0mph /  27.4km/h - 7.8mph /  12.6km/h
Wind Gust: 32.0mph /  51.5km/h - -
Wind- - WSW
Pressure: 29.94 in /  1013.8 hPa 29.51 in /  999.2 hPa -
Precipitation: 0.00 in /  0 mm    
Historical Graphs
 
 
Tabular Data for March 18, 2011
Time Temperature Dew Point Pressure Wind Wind Speed Wind Gust Humidity Daily Rainfall
00:04 47.2 °F /  8.4 °C 33.6 °F /  0.9 °C 29.75in /  1007.3hPa SSW 10.0mph /  16.1km/h 20.0mph /  32.2km/h 59% 0.00in /  0mm
00:09 47.4 °F /  8.6 °C 33.8 °F /  1 °C 29.75in /  1007.3hPa SSW 10.0mph /  16.1km/h 20.0mph /  32.2km/h 59% 0.00in /  0mm
00:14 47.4 °F /  8.6 °C 33.4 °F /  0.8 °C 29.74in /  1007hPa SSW 10.0mph /  16.1km/h 20.0mph /  32.2km/h 58% 0.00in /  0mm
00:19 47.3 °F /  8.5 °C 33.7 °F /  0.9 °C 29.74in /  1007hPa SSW 8.0mph /  12.9km/h 20.0mph /  32.2km/h 59% 0.00in /  0mm
00:24 47.4 °F /  8.6 °C 33.8 °F /  1 °C 29.73in /  1006.7hPa SSW 10.0mph /  16.1km/h 23.0mph /  37km/h 59% 0.00in /  0mm
00:29 47.6 °F /  8.7 °C 33.6 °F /  0.9 °C 29.73in /  1006.7hPa SSW 10.0mph /  16.1km/h 23.0mph /  37km/h 58% 0.00in /  0mm
00:34 47.6 °F /  8.7 °C 33.6 °F /  0.9 °C 29.72in /  1006.3hPa SSW 9.0mph /  14.5km/h 21.0mph /  33.8km/h 58% 0.00in /  0mm
00:39 47.9 °F /  8.8 °C 33.8 °F /  1 °C 29.72in /  1006.3hPa SSW 11.0mph /  17.7km/h 21.0mph /  33.8km/h 58% 0.00in /  0mm
00:44 48.0 °F /  8.9 °C 33.5 °F /  0.8 °C 29.72in /  1006.3hPa SSW 11.0mph /  17.7km/h 22.0mph /  35.4km/h 57% 0.00in /  0mm
00:49 47.8 °F /  8.8 °C 33.7 °F /  0.9 °C 29.71in /  1006hPa SSW 10.0mph /  16.1km/h 22.0mph /  35.4km/h 58% 0.00in /  0mm
00:54 47.9 °F /  8.8 °C 33.8 °F /  1 °C 29.71in /  1006hPa SSW 8.0mph /  12.9km/h 20.0mph /  32.2km/h 58% 0.00in /  0mm
00:59 47.9 °F /  8.8 °C 33.4 °F /  0.8 °C 29.71in /  1006hPa SSW 10.0mph /  16.1km/h 22.0mph /  35.4km/h 57% 0.00in /  0mm
01:04 47.9 °F /  8.8 °C 33.8 °F /  1 °C 29.71in /  1006hPa SSW 10.0mph /  16.1km/h 22.0mph /  35.4km/h 58% 0.00in /  0mm
01:09 47.9 °F /  8.8 °C 33.4 °F /  0.8 °C 29.70in /  1005.6hPa SSW 10.0mph /  16.1km/h 19.0mph /  30.6km/h 57% 0.00in /  0mm
01:14 47.6 °F /  8.7 °C 33.6 °F /  0.9 °C 29.70in /  1005.6hPa SSW 10.0mph /  16.1km/h 19.0mph /  30.6km/h 58% 0.00in /  0mm
01:19 47.8 °F /  8.8 °C 33.3 °F /  0.7 °C 29.70in /  1005.6hPa SSW 8.0mph /  12.9km/h 19.0mph /  30.6km/h 57% 0.00in /  0mm
01:24 47.8 °F /  8.8 °C 33.7 °F /  0.9 °C 29.70in /  1005.6hPa SSW 9.0mph /  14.5km/h 19.0mph /  30.6km/h 58% 0.00in /  0mm
01:29 47.8 °F /  8.8 °C 33.7 °F /  0.9 °C 29.69in /  1005.3hPa SSW 10.0mph /  16.1km/h 19.0mph /  30.6km/h 58% 0.00in /  0mm
01:34 47.8 °F /  8.8 °C 33.7 °F /  0.9 °C 29.69in /  1005.3hPa SSW 10.0mph /  16.1km/h 23.0mph /  37km/h 58% 0.00in /  0mm
01:39 47.9 °F /  8.8 °C 33.4 °F /  0.8 °C 29.68in /  1005hPa SSW 9.0mph /  14.5km/h 23.0mph /  37km/h 57% 0.00in /  0mm
01:44 48.1 °F /  8.9 °C 33.6 °F /  0.9 °C 29.69in /  1005.3hPa SSW 12.0mph /  19.3km/h 18.0mph /  29km/h 57% 0.00in /  0mm
01:49 48.1 °F /  8.9 °C 34.0 °F /  1.1 °C 29.68in /  1005hPa SSW 10.0mph /  16.1km/h 26.0mph /  41.8km/h 58% 0.00in /  0mm
01:54 47.8 °F /  8.8 °C 34.2 °F /  1.2 °C 29.67in /  1004.6hPa SSW 10.0mph /  16.1km/h 26.0mph /  41.8km/h 59% 0.00in /  0mm
01:59 47.8 °F /  8.8 °C 34.2 °F /  1.2 °C 29.67in /  1004.6hPa SSW 12.0mph /  19.3km/h 22.0mph /  35.4km/h 59% 0.00in /  0mm
02:04 48.2 °F /  9 °C 34.1 °F /  1.2 °C 29.67in /  1004.6hPa SW 12.0mph /  19.3km/h 22.0mph /  35.4km/h 58% 0.00in /  0mm
02:09 48.0 °F /  8.9 °C 34.4 °F /  1.3 °C 29.67in /  1004.6hPa SSW 12.0mph /  19.3km/h 22.0mph /  35.4km/h 59% 0.00in /  0mm
02:14 47.5 °F /  8.6 °C 34.7 °F /  1.5 °C 29.67in /  1004.6hPa SSW 10.0mph /  16.1km/h 20.0mph /  32.2km/h 61% 0.00in /  0mm
02:19 47.2 °F /  8.4 °C 34.9 °F /  1.6 °C 29.66in /  1004.3hPa SSW 12.0mph /  19.3km/h 20.0mph /  32.2km/h 62% 0.00in /  0mm
02:24 47.1 °F /  8.4 °C 35.2 °F /  1.8 °C 29.65in /  1003.9hPa SSW 10.0mph /  16.1km/h 23.0mph /  37km/h 63% 0.00in /  0mm
02:29 47.2 °F /  8.4 °C 34.9 °F /  1.6 °C 29.65in /  1003.9hPa SSW 13.0mph /  20.9km/h 23.0mph /  37km/h 62% 0.00in /  0mm
02:34 47.2 °F /  8.4 °C 35.3 °F /  1.8 °C 29.65in /  1003.9hPa SSW 11.0mph /  17.7km/h 21.0mph /  33.8km/h 63% 0.00in /  0mm
02:39 46.7 °F /  8.2 °C 35.6 °F /  2 °C 29.65in /  1003.9hPa SW 13.0mph /  20.9km/h 21.0mph /  33.8km/h 65% 0.00in /  0mm
02:44 46.2 °F /  7.9 °C 35.9 °F /  2.2 °C 29.66in /  1004.3hPa SSW 12.0mph /  19.3km/h 21.0mph /  33.8km/h 67% 0.00in /  0mm
02:49 45.8 °F /  7.7 °C 35.8 °F /  2.1 °C 29.65in /  1003.9hPa SW 9.0mph /  14.5km/h 24.0mph /  38.6km/h 68% 0.00in /  0mm
02:54 45.4 °F /  7.4 °C 35.8 °F /  2.1 °C 29.65in /  1003.9hPa SSW 9.0mph /  14.5km/h 24.0mph /  38.6km/h 69% 0.00in /  0mm
02:59 45.5 °F /  7.5 °C 35.9 °F /  2.2 °C 29.65in /  1003.9hPa SSW 9.0mph /  14.5km/h 18.0mph /  29km/h 69% 0.00in /  0mm
03:04 45.6 °F /  7.6 °C 35.7 °F /  2.1 °C 29.64in /  1003.6hPa SSW 9.0mph /  14.5km/h 20.0mph /  32.2km/h 68% 0.00in /  0mm
03:09 45.8 °F /  7.7 °C 35.5 °F /  1.9 °C 29.63in /  1003.3hPa SSW 10.0mph /  16.1km/h 23.0mph /  37km/h 67% 0.00in /  0mm
03:14 46.0 °F /  7.8 °C 35.3 °F /  1.8 °C 29.63in /  1003.3hPa SSW 9.0mph /  14.5km/h 23.0mph /  37km/h 66% 0.00in /  0mm
03:19 46.2 °F /  7.9 °C 35.5 °F /  1.9 °C 29.63in /  1003.3hPa SW 10.0mph /  16.1km/h 23.0mph /  37km/h 66% 0.00in /  0mm
03:24 46.5 °F /  8.1 °C 35.4 °F /  1.9 °C 29.63in /  1003.3hPa SW 10.0mph /  16.1km/h 19.0mph /  30.6km/h 65% 0.00in /  0mm
03:30 46.6 °F /  8.1 °C 35.5 °F /  1.9 °C 29.62in /  1002.9hPa SSW 10.0mph /  16.1km/h 19.0mph /  30.6km/h 65% 0.00in /  0mm
03:34 46.6 °F /  8.1 °C 35.1 °F /  1.7 °C 29.62in /  1002.9hPa SSW 8.0mph /  12.9km/h 19.0mph /  30.6km/h 64% 0.00in /  0mm
03:39 46.7 °F /  8.2 °C 35.2 °F /  1.8 °C 29.61in /  1002.6hPa SW 9.0mph /  14.5km/h 18.0mph /  29km/h 64% 0.00in /  0mm
03:44 46.7 °F /  8.2 °C 35.2 °F /  1.8 °C 29.60in /  1002.3hPa SSW 9.0mph /  14.5km/h 18.0mph /  29km/h 64% 0.00in /  0mm
03:49 46.6 °F /  8.1 °C 35.1 °F /  1.7 °C 29.60in /  1002.3hPa SSW 10.0mph /  16.1km/h 18.0mph /  29km/h 64% 0.00in /  0mm
03:54 46.7 °F /  8.2 °C 35.2 °F /  1.8 °C 29.60in /  1002.3hPa SW 11.0mph /  17.7km/h 19.0mph /  30.6km/h 64% 0.00in /  0mm
04:04 46.7 °F /  8.2 °C 35.6 °F /  2 °C 29.59in /  1001.9hPa SSW 9.0mph /  14.5km/h 20.0mph /  32.2km/h 65% 0.00in /  0mm
04:09 46.7 °F /  8.2 °C 35.6 °F /  2 °C 29.59in /  1001.9hPa SSW 9.0mph /  14.5km/h 20.0mph /  32.2km/h 65% 0.00in /  0mm
04:14 46.6 °F /  8.1 °C 35.9 °F /  2.2 °C 29.58in /  1001.6hPa SSW 10.0mph /  16.1km/h 22.0mph /  35.4km/h 66% 0.00in /  0mm
04:19 46.8 °F /  8.2 °C 35.7 °F /  2.1 °C 29.58in /  1001.6hPa SSW 10.0mph /  16.1km/h 22.0mph /  35.4km/h 65% 0.00in /  0mm
04:24 47.0 °F /  8.3 °C 35.9 °F /  2.2 °C 29.58in /  1001.6hPa SW 13.0mph /  20.9km/h 22.0mph /  35.4km/h 65% 0.00in /  0mm
04:29 47.1 °F /  8.4 °C 35.9 °F /  2.2 °C 29.57in /  1001.2hPa SSW 12.0mph /  19.3km/h 22.0mph /  35.4km/h 65% 0.00in /  0mm
04:34 47.1 °F /  8.4 °C 35.9 °F /  2.2 °C 29.56in /  1000.9hPa SSW 11.0mph /  17.7km/h 22.0mph /  35.4km/h 65% 0.00in /  0mm
04:39 47.3 °F /  8.5 °C 36.1 °F /  2.3 °C 29.56in /  1000.9hPa SSW 12.0mph /  19.3km/h 24.0mph /  38.6km/h 65% 0.00in /  0mm
04:44 47.0 °F /  8.3 °C 35.9 °F /  2.2 °C 29.56in /  1000.9hPa SSW 10.0mph /  16.1km/h 24.0mph /  38.6km/h 65% 0.00in /  0mm
04:49 47.2 °F /  8.4 °C 36.0 °F /  2.2 °C 29.55in /  1000.6hPa SSW 11.0mph /  17.7km/h 20.0mph /  32.2km/h 65% 0.00in /  0mm
04:55 47.2 °F /  8.4 °C 36.4 °F /  2.4 °C 29.55in /  1000.6hPa SSW 14.0mph /  22.5km/h 21.0mph /  33.8km/h 66% 0.00in /  0mm
04:59 47.2 °F /  8.4 °C 36.4 °F /  2.4 °C 29.55in /  1000.6hPa SSW 11.0mph /  17.7km/h 21.0mph /  33.8km/h 66% 0.00in /  0mm
05:04 47.3 °F /  8.5 °C 36.5 °F /  2.5 °C 29.55in /  1000.6hPa SSW 10.0mph /  16.1km/h 22.0mph /  35.4km/h 66% 0.00in /  0mm
05:09 47.4 °F /  8.6 °C 37.0 °F /  2.8 °C 29.55in /  1000.6hPa SSW 13.0mph /  20.9km/h 23.0mph /  37km/h 67% 0.00in /  0mm
05:14 47.5 °F /  8.6 °C 37.1 °F /  2.8 °C 29.55in /  1000.6hPa SSW 11.0mph /  17.7km/h 23.0mph /  37km/h 67% 0.00in /  0mm
05:19 47.4 °F /  8.6 °C 37.0 °F /  2.8 °C 29.55in /  1000.6hPa SSW 9.0mph /  14.5km/h 21.0mph /  33.8km/h 67% 0.00in /  0mm
05:24 47.3 °F /  8.5 °C 37.3 °F /  2.9 °C 29.55in /  1000.6hPa SSW 12.0mph /  19.3km/h 22.0mph /  35.4km/h 68% 0.00in /  0mm
05:29 47.0 °F /  8.3 °C 37.0 °F /  2.8 °C 29.54in /  1000.2hPa SSW 11.0mph /  17.7km/h 22.0mph /  35.4km/h 68% 0.00in /  0mm
05:34 47.0 °F /  8.3 °C 37.4 °F /  3 °C 29.54in /  1000.2hPa SSW 10.0mph /  16.1km/h 20.0mph /  32.2km/h 69% 0.00in /  0mm
05:39 47.2 °F /  8.4 °C 37.6 °F /  3.1 °C 29.54in /  1000.2hPa SSW 10.0mph /  16.1km/h 20.0mph /  32.2km/h 69% 0.00in /  0mm
05:44 47.1 °F /  8.4 °C 37.8 °F /  3.2 °C 29.54in /  1000.2hPa SSW 9.0mph /  14.5km/h 20.0mph /  32.2km/h 70% 0.00in /  0mm
05:49 47.2 °F /  8.4 °C 38.3 °F /  3.5 °C 29.54in /  1000.2hPa SSW 11.0mph /  17.7km/h 22.0mph /  35.4km/h 71% 0.00in /  0mm
05:54 47.2 °F /  8.4 °C 38.3 °F /  3.5 °C 29.53in /  999.9hPa SSW 12.0mph /  19.3km/h 22.0mph /  35.4km/h 71% 0.00in /  0mm
05:59 47.4 °F /  8.6 °C 38.1 °F /  3.4 °C 29.54in /  1000.2hPa SSW 11.0mph /  17.7km/h 20.0mph /  32.2km/h 70% 0.00in /  0mm
06:04 47.5 °F /  8.6 °C 38.2 °F /  3.4 °C 29.54in /  1000.2hPa SSW 12.0mph /  19.3km/h 22.0mph /  35.4km/h 70% 0.00in /  0mm
06:09 47.2 °F /  8.4 °C 37.9 °F /  3.3 °C 29.53in /  999.9hPa SSW 9.0mph /  14.5km/h 22.0mph /  35.4km/h 70% 0.00in /  0mm
06:14 47.3 °F /  8.5 °C 38.4 °F /  3.6 °C 29.53in /  999.9hPa SSW 11.0mph /  17.7km/h 19.0mph /  30.6km/h 71% 0.00in /  0mm
06:19 47.3 °F /  8.5 °C 38.4 °F /  3.6 °C 29.53in /  999.9hPa SSW 12.0mph /  19.3km/h 23.0mph /  37km/h 71% 0.00in /  0mm
06:24 47.4 °F /  8.6 °C 38.5 °F /  3.6 °C 29.53in /  999.9hPa SSW 9.0mph /  14.5km/h 23.0mph /  37km/h 71% 0.00in /  0mm
06:30 47.3 °F /  8.5 °C 38.4 °F /  3.6 °C 29.52in /  999.5hPa SSW 11.0mph /  17.7km/h 24.0mph /  38.6km/h 71% 0.00in /  0mm
06:34 47.5 °F /  8.6 °C 38.6 °F /  3.7 °C 29.52in /  999.5hPa SSW 12.0mph /  19.3km/h 24.0mph /  38.6km/h 71% 0.00in /  0mm
06:39 47.4 °F /  8.6 °C 38.5 °F /  3.6 °C 29.53in /  999.9hPa SSW 10.0mph /  16.1km/h 23.0mph /  37km/h 71% 0.00in /  0mm
06:44 47.2 °F /  8.4 °C 38.6 °F /  3.7 °C 29.53in /  999.9hPa SW 9.0mph /  14.5km/h 17.0mph /  27.4km/h 72% 0.00in /  0mm
06:49 47.2 °F /  8.4 °C 38.6 °F /  3.7 °C 29.52in /  999.5hPa SSW 9.0mph /  14.5km/h 18.0mph /  29km/h 72% 0.00in /  0mm
06:54 47.4 °F /  8.6 °C 38.5 °F /  3.6 °C 29.52in /  999.5hPa SSW 12.0mph /  19.3km/h 26.0mph /  41.8km/h 71% 0.00in /  0mm
06:59 47.4 °F /  8.6 °C 38.8 °F /  3.8 °C 29.52in /  999.5hPa SSW 9.0mph /  14.5km/h 26.0mph /  41.8km/h 72% 0.00in /  0mm
07:04 47.4 °F /  8.6 °C 38.5 °F /  3.6 °C 29.51in /  999.2hPa SSW 9.0mph /  14.5km/h 20.0mph /  32.2km/h 71% 0.00in /  0mm
07:09 47.0 °F /  8.3 °C 38.4 °F /  3.6 °C 29.52in /  999.5hPa SW 10.0mph /  16.1km/h 20.0mph /  32.2km/h 72% 0.00in /  0mm
07:14 47.3 °F /  8.5 °C 38.7 °F /  3.7 °C 29.52in /  999.5hPa SSW 9.0mph /  14.5km/h 19.0mph /  30.6km/h 72% 0.00in /  0mm
07:19 47.5 °F /  8.6 °C 38.9 °F /  3.8 °C 29.52in /  999.5hPa SSW 7.0mph /  11.3km/h 19.0mph /  30.6km/h 72% 0.00in /  0mm
07:24 47.7 °F /  8.7 °C 39.1 °F /  3.9 °C 29.53in /  999.9hPa SW 10.0mph /  16.1km/h 19.0mph /  30.6km/h 72% 0.00in /  0mm
07:29 47.6 °F /  8.7 °C 39.0 °F /  3.9 °C 29.53in /  999.9hPa SW 8.0mph /  12.9km/h 19.0mph /  30.6km/h 72% 0.00in /  0mm
07:34 47.4 °F /  8.6 °C 38.8 °F /  3.8 °C 29.52in /  999.5hPa SSW 8.0mph /  12.9km/h 17.0mph /  27.4km/h 72% 0.00in /  0mm
07:39 47.4 °F /  8.6 °C 38.8 °F /  3.8 °C 29.53in /  999.9hPa WSW 3.0mph /  4.8km/h 15.0mph /  24.1km/h 72% 0.00in /  0mm
07:44 47.3 °F /  8.5 °C 39.1 °F /  3.9 °C 29.53in /  999.9hPa SW 7.0mph /  11.3km/h 14.0mph /  22.5km/h 73% 0.00in /  0mm
07:49 47.5 °F /  8.6 °C 39.3 °F /  4.1 °C 29.53in /  999.9hPa SSW 7.0mph /  11.3km/h 14.0mph /  22.5km/h 73% 0.00in /  0mm
07:54 47.5 °F /  8.6 °C 39.6 °F /  4.2 °C 29.53in /  999.9hPa SSW 8.0mph /  12.9km/h 14.0mph /  22.5km/h 74% 0.00in /  0mm
07:59 47.7 °F /  8.7 °C 39.8 °F /  4.3 °C 29.53in /  999.9hPa SW 8.0mph /  12.9km/h 16.0mph /  25.7km/h 74% 0.00in /  0mm
08:04 47.7 °F /  8.7 °C 39.8 °F /  4.3 °C 29.53in /  999.9hPa SW 6.0mph /  9.7km/h 16.0mph /  25.7km/h 74% 0.00in /  0mm
08:09 47.8 °F /  8.8 °C 39.9 °F /  4.4 °C 29.52in /  999.5hPa SSW 7.0mph /  11.3km/h 14.0mph /  22.5km/h 74% 0.00in /  0mm
08:14 48.1 °F /  8.9 °C 40.6 °F /  4.8 °C 29.52in /  999.5hPa SW 7.0mph /  11.3km/h 13.0mph /  20.9km/h 75% 0.00in /  0mm
08:19 47.9 °F /  8.8 °C 40.0 °F /  4.4 °C 29.52in /  999.5hPa SSW 6.0mph /  9.7km/h 13.0mph /  20.9km/h 74% 0.00in /  0mm
08:24 47.8 °F /  8.8 °C 39.9 °F /  4.4 °C 29.51in /  999.2hPa SSW 7.0mph /  11.3km/h 13.0mph /  20.9km/h 74% 0.00in /  0mm
08:29 47.5 °F /  8.6 °C 39.6 °F /  4.2 °C 29.51in /  999.2hPa SW 6.0mph /  9.7km/h 12.0mph /  19.3km/h 74% 0.00in /  0mm
08:34 47.5 °F /  8.6 °C 40.0 °F /  4.4 °C 29.51in /  999.2hPa SSW 6.0mph /  9.7km/h 12.0mph /  19.3km/h 75% 0.00in /  0mm
08:39 47.7 °F /  8.7 °C 40.2 °F /  4.6 °C 29.51in /  999.2hPa SSW 6.0mph /  9.7km/h 13.0mph /  20.9km/h 75% 0.00in /  0mm
08:44 47.7 °F /  8.7 °C 40.2 °F /  4.6 °C 29.51in /  999.2hPa SW 6.0mph /  9.7km/h 13.0mph /  20.9km/h 75% 0.00in /  0mm
08:49 47.9 °F /  8.8 °C 40.4 °F /  4.7 °C 29.52in /  999.5hPa SW 7.0mph /  11.3km/h 12.0mph /  19.3km/h 75% 0.00in /  0mm
08:54 48.6 °F /  9.2 °C 41.0 °F /  5 °C 29.52in /  999.5hPa SW 7.0mph /  11.3km/h 12.0mph /  19.3km/h 75% 0.00in /  0mm
08:59 48.7 °F /  9.3 °C 40.8 °F /  4.9 °C 29.51in /  999.2hPa SW 5.0mph /  8km/h 12.0mph /  19.3km/h 74% 0.00in /  0mm
09:04 49.3 °F /  9.6 °C 41.7 °F /  5.4 °C 29.52in /  999.5hPa WSW 8.0mph /  12.9km/h 15.0mph /  24.1km/h 75% 0.00in /  0mm
09:09 49.6 °F /  9.8 °C 41.7 °F /  5.4 °C 29.52in /  999.5hPa SW 7.0mph /  11.3km/h 15.0mph /  24.1km/h 74% 0.00in /  0mm
09:14 49.9 °F /  9.9 °C 41.6 °F /  5.3 °C 29.52in /  999.5hPa SW 7.0mph /  11.3km/h 14.0mph /  22.5km/h 73% 0.00in /  0mm
09:19 50.3 °F /  10.2 °C 41.6 °F /  5.3 °C 29.53in /  999.9hPa WSW 6.0mph /  9.7km/h 14.0mph /  22.5km/h 72% 0.00in /  0mm
09:24 50.9 °F /  10.5 °C 41.8 °F /  5.4 °C 29.53in /  999.9hPa WSW 8.0mph /  12.9km/h 16.0mph /  25.7km/h 71% 0.00in /  0mm
09:29 51.5 °F /  10.8 °C 41.7 °F /  5.4 °C 29.54in /  1000.2hPa WSW 9.0mph /  14.5km/h 16.0mph /  25.7km/h 69% 0.00in /  0mm
09:34 52.1 °F /  11.2 °C 41.9 °F /  5.5 °C 29.54in /  1000.2hPa WSW 12.0mph /  19.3km/h 20.0mph /  32.2km/h 68% 0.00in /  0mm
09:39 52.7 °F /  11.5 °C 41.7 °F /  5.4 °C 29.54in /  1000.2hPa West 11.0mph /  17.7km/h 24.0mph /  38.6km/h 66% 0.00in /  0mm
09:44 52.8 °F /  11.6 °C 41.4 °F /  5.2 °C 29.54in /  1000.2hPa WSW 8.0mph /  12.9km/h 24.0mph /  38.6km/h 65% 0.00in /  0mm
09:49 52.9 °F /  11.6 °C 41.5 °F /  5.3 °C 29.54in /  1000.2hPa WSW 9.0mph /  14.5km/h 19.0mph /  30.6km/h 65% 0.00in /  0mm
09:54 53.3 °F /  11.8 °C 41.4 °F /  5.2 °C 29.54in /  1000.2hPa WSW 9.0mph /  14.5km/h 19.0mph /  30.6km/h 64% 0.00in /  0mm
09:59 53.2 °F /  11.8 °C 40.5 °F /  4.7 °C 29.55in /  1000.6hPa WSW 9.0mph /  14.5km/h 19.0mph /  30.6km/h 62% 0.00in /  0mm
10:04 53.2 °F /  11.8 °C 40.9 °F /  4.9 °C 29.54in /  1000.2hPa WSW 12.0mph /  19.3km/h 21.0mph /  33.8km/h 63% 0.00in /  0mm
10:09 53.3 °F /  11.8 °C 40.6 °F /  4.8 °C 29.55in /  1000.6hPa West 9.0mph /  14.5km/h 21.0mph /  33.8km/h 62% 0.00in /  0mm
10:14 53.4 °F /  11.9 °C 40.3 °F /  4.6 °C 29.55in /  1000.6hPa West 11.0mph /  17.7km/h 20.0mph /  32.2km/h 61% 0.00in /  0mm
10:19 53.5 °F /  11.9 °C 40.0 °F /  4.4 °C 29.56in /  1000.9hPa WSW 7.0mph /  11.3km/h 19.0mph /  30.6km/h 60% 0.00in /  0mm
10:24 53.2 °F /  11.8 °C 39.7 °F /  4.3 °C 29.55in /  1000.6hPa West 9.0mph /  14.5km/h 16.0mph /  25.7km/h 60% 0.00in /  0mm
10:29 53.5 °F /  11.9 °C 40.0 °F /  4.4 °C 29.56in /  1000.9hPa West 8.0mph /  12.9km/h 17.0mph /  27.4km/h 60% 0.00in /  0mm
10:34 53.5 °F /  11.9 °C 39.1 °F /  3.9 °C 29.56in /  1000.9hPa West 9.0mph /  14.5km/h 17.0mph /  27.4km/h 58% 0.00in /  0mm
10:39 53.4 °F /  11.9 °C 39.0 °F /  3.9 °C 29.56in /  1000.9hPa West 8.0mph /  12.9km/h 20.0mph /  32.2km/h 58% 0.00in /  0mm
10:44 53.2 °F /  11.8 °C 38.8 °F /  3.8 °C 29.56in /  1000.9hPa West 9.0mph /  14.5km/h 20.0mph /  32.2km/h 58% 0.00in /  0mm
10:49 53.2 °F /  11.8 °C 38.8 °F /  3.8 °C 29.57in /  1001.2hPa WSW 9.0mph /  14.5km/h 18.0mph /  29km/h 58% 0.00in /  0mm
10:54 53.1 °F /  11.7 °C 38.3 °F /  3.5 °C 29.57in /  1001.2hPa WSW 9.0mph /  14.5km/h 22.0mph /  35.4km/h 57% 0.00in /  0mm
10:59 53.3 °F /  11.8 °C 38.5 °F /  3.6 °C 29.56in /  1000.9hPa West 8.0mph /  12.9km/h 22.0mph /  35.4km/h 57% 0.00in /  0mm
11:04 53.4 °F /  11.9 °C 37.6 °F /  3.1 °C 29.57in /  1001.2hPa WNW 13.0mph /  20.9km/h 23.0mph /  37km/h 55% 0.00in /  0mm
11:09 53.3 °F /  11.8 °C 37.6 °F /  3.1 °C 29.58in /  1001.6hPa WNW 12.0mph /  19.3km/h 23.0mph /  37km/h 55% 0.00in /  0mm
11:14 52.8 °F /  11.6 °C 37.1 °F /  2.8 °C 29.58in /  1001.6hPa WNW 17.0mph /  27.4km/h 25.0mph /  40.2km/h 55% 0.00in /  0mm
11:19 52.8 °F /  11.6 °C 37.1 °F /  2.8 °C 29.58in /  1001.6hPa West 10.0mph /  16.1km/h 27.0mph /  43.5km/h 55% 0.00in /  0mm
11:24 52.7 °F /  11.5 °C 37.0 °F /  2.8 °C 29.58in /  1001.6hPa WNW 10.0mph /  16.1km/h 27.0mph /  43.5km/h 55% 0.00in /  0mm
11:29 53.4 °F /  11.9 °C 37.2 °F /  2.9 °C 29.59in /  1001.9hPa WNW 8.0mph /  12.9km/h 21.0mph /  33.8km/h 54% 0.00in /  0mm
11:34 52.7 °F /  11.5 °C 37.0 °F /  2.8 °C 29.59in /  1001.9hPa NW 13.0mph /  20.9km/h 21.0mph /  33.8km/h 55% 0.00in /  0mm
11:39 52.6 °F /  11.4 °C 36.0 °F /  2.2 °C 29.59in /  1001.9hPa WNW 16.0mph /  25.7km/h 27.0mph /  43.5km/h 53% 0.00in /  0mm
11:44 51.7 °F /  10.9 °C 35.6 °F /  2 °C 29.60in /  1002.3hPa WNW 15.0mph /  24.1km/h 27.0mph /  43.5km/h 54% 0.00in /  0mm
11:49 51.5 °F /  10.8 °C 35.4 °F /  1.9 °C 29.61in /  1002.6hPa WNW 11.0mph /  17.7km/h 23.0mph /  37km/h 54% 0.00in /  0mm
11:54 51.4 °F /  10.8 °C 35.8 °F /  2.1 °C 29.61in /  1002.6hPa NW 12.0mph /  19.3km/h 23.0mph /  37km/h 55% 0.00in /  0mm
11:59 51.7 °F /  10.9 °C 35.6 °F /  2 °C 29.61in /  1002.6hPa WNW 10.0mph /  16.1km/h 23.0mph /  37km/h 54% 0.00in /  0mm
12:04 51.4 °F /  10.8 °C 35.8 °F /  2.1 °C 29.60in /  1002.3hPa WNW 11.0mph /  17.7km/h 20.0mph /  32.2km/h 55% 0.00in /  0mm
12:09 51.0 °F /  10.6 °C 35.9 °F /  2.2 °C 29.61in /  1002.6hPa NW 12.0mph /  19.3km/h 20.0mph /  32.2km/h 56% 0.00in /  0mm
12:14 51.5 °F /  10.8 °C 35.9 °F /  2.2 °C 29.62in /  1002.9hPa NW 9.0mph /  14.5km/h 25.0mph /  40.2km/h 55% 0.00in /  0mm
12:19 51.4 °F /  10.8 °C 35.3 °F /  1.8 °C 29.62in /  1002.9hPa WNW 11.0mph /  17.7km/h 25.0mph /  40.2km/h 54% 0.00in /  0mm
12:24 50.7 °F /  10.4 °C 35.1 °F /  1.7 °C 29.63in /  1003.3hPa NW 14.0mph /  22.5km/h 23.0mph /  37km/h 55% 0.00in /  0mm
12:29 50.7 °F /  10.4 °C 35.1 °F /  1.7 °C 29.63in /  1003.3hPa WNW 9.0mph /  14.5km/h 24.0mph /  38.6km/h 55% 0.00in /  0mm
12:34 50.8 °F /  10.4 °C 35.7 °F /  2.1 °C 29.63in /  1003.3hPa WNW 12.0mph /  19.3km/h 24.0mph /  38.6km/h 56% 0.00in /  0mm
12:39 50.4 °F /  10.2 °C 35.3 °F /  1.8 °C 29.64in /  1003.6hPa WNW 7.0mph /  11.3km/h 24.0mph /  38.6km/h 56% 0.00in /  0mm
12:44 50.0 °F /  10 °C 34.9 °F /  1.6 °C 29.64in /  1003.6hPa WNW 14.0mph /  22.5km/h 28.0mph /  45.1km/h 56% 0.00in /  0mm
12:49 50.0 °F /  10 °C 34.5 °F /  1.4 °C 29.64in /  1003.6hPa WNW 15.0mph /  24.1km/h 28.0mph /  45.1km/h 55% 0.00in /  0mm
12:54 49.7 °F /  9.8 °C 34.2 °F /  1.2 °C 29.64in /  1003.6hPa WNW 12.0mph /  19.3km/h 24.0mph /  38.6km/h 55% 0.00in /  0mm
12:59 49.5 °F /  9.7 °C 34.5 °F /  1.4 °C 29.66in /  1004.3hPa NW 15.0mph /  24.1km/h 22.0mph /  35.4km/h 56% 0.00in /  0mm
13:04 49.0 °F /  9.4 °C 34.4 °F /  1.3 °C 29.66in /  1004.3hPa WNW 12.0mph /  19.3km/h 26.0mph /  41.8km/h 57% 0.00in /  0mm
13:09 48.7 °F /  9.3 °C 34.2 °F /  1.2 °C 29.66in /  1004.3hPa WNW 10.0mph /  16.1km/h 32.0mph /  51.5km/h 57% 0.00in /  0mm
13:14 48.6 °F /  9.2 °C 33.6 °F /  0.9 °C 29.67in /  1004.6hPa WNW 15.0mph /  24.1km/h 32.0mph /  51.5km/h 56% 0.00in /  0mm
13:19 48.6 °F /  9.2 °C 33.6 °F /  0.9 °C 29.67in /  1004.6hPa WNW 14.0mph /  22.5km/h 27.0mph /  43.5km/h 56% 0.00in /  0mm
13:24 48.7 °F /  9.3 °C 33.7 °F /  0.9 °C 29.68in /  1005hPa NW 9.0mph /  14.5km/h 25.0mph /  40.2km/h 56% 0.00in /  0mm
13:29 48.8 °F /  9.3 °C 33.4 °F /  0.8 °C 29.67in /  1004.6hPa NW 11.0mph /  17.7km/h 25.0mph /  40.2km/h 55% 0.00in /  0mm
13:34 48.2 °F /  9 °C 33.2 °F /  0.7 °C 29.68in /  1005hPa WNW 12.0mph /  19.3km/h 22.0mph /  35.4km/h 56% 0.00in /  0mm
13:39 48.1 °F /  8.9 °C 33.6 °F /  0.9 °C 29.68in /  1005hPa NW 13.0mph /  20.9km/h 24.0mph /  38.6km/h 57% 0.00in /  0mm
13:44 48.0 °F /  8.9 °C 33.1 °F /  0.6 °C 29.68in /  1005hPa NW 13.0mph /  20.9km/h 28.0mph /  45.1km/h 56% 0.00in /  0mm
13:49 47.7 °F /  8.7 °C 33.2 °F /  0.7 °C 29.69in /  1005.3hPa NW 14.0mph /  22.5km/h 28.0mph /  45.1km/h 57% 0.00in /  0mm
13:54 47.5 °F /  8.6 °C 33.0 °F /  0.6 °C 29.69in /  1005.3hPa WNW 15.0mph /  24.1km/h 26.0mph /  41.8km/h 57% 0.00in /  0mm
13:59 47.4 °F /  8.6 °C 33.4 °F /  0.8 °C 29.69in /  1005.3hPa NW 9.0mph /  14.5km/h 26.0mph /  41.8km/h 58% 0.00in /  0mm
14:04 47.4 °F /  8.6 °C 32.9 °F /  0.5 °C 29.70in /  1005.6hPa NW 15.0mph /  24.1km/h 28.0mph /  45.1km/h 57% 0.00in /  0mm
14:09 47.3 °F /  8.5 °C 32.8 °F /  0.4 °C 29.70in /  1005.6hPa WNW 16.0mph /  25.7km/h 28.0mph /  45.1km/h 57% 0.00in /  0mm
14:14 47.8 °F /  8.8 °C 33.3 °F /  0.7 °C 29.69in /  1005.3hPa NW 12.0mph /  19.3km/h 25.0mph /  40.2km/h 57% 0.00in /  0mm
14:19 48.0 °F /  8.9 °C 33.1 °F /  0.6 °C 29.70in /  1005.6hPa NW 11.0mph /  17.7km/h 25.0mph /  40.2km/h 56% 0.00in /  0mm
14:24 48.2 °F /  9 °C 33.2 °F /  0.7 °C 29.71in /  1006hPa WNW 13.0mph /  20.9km/h 23.0mph /  37km/h 56% 0.00in /  0mm
14:29 48.4 °F /  9.1 °C 33.0 °F /  0.6 °C 29.70in /  1005.6hPa NW 10.0mph /  16.1km/h 23.0mph /  37km/h 55% 0.00in /  0mm
14:34 48.2 °F /  9 °C 33.2 °F /  0.7 °C 29.71in /  1006hPa NNW 11.0mph /  17.7km/h 20.0mph /  32.2km/h 56% 0.00in /  0mm
14:39 47.9 °F /  8.8 °C 33.0 °F /  0.6 °C 29.71in /  1006hPa NNW 10.0mph /  16.1km/h 20.0mph /  32.2km/h 56% 0.00in /  0mm
14:44 47.7 °F /  8.7 °C 33.2 °F /  0.7 °C 29.72in /  1006.3hPa NW 7.0mph /  11.3km/h 20.0mph /  32.2km/h 57% 0.00in /  0mm
14:49 47.5 °F /  8.6 °C 33.5 °F /  0.8 °C 29.73in /  1006.7hPa NW 4.0mph /  6.4km/h 18.0mph /  29km/h 58% 0.00in /  0mm
14:54 47.3 °F /  8.5 °C 33.3 °F /  0.7 °C 29.73in /  1006.7hPa NNW 5.0mph /  8km/h 11.0mph /  17.7km/h 58% 0.00in /  0mm
14:59 46.9 °F /  8.3 °C 33.3 °F /  0.7 °C 29.73in /  1006.7hPa NNW 5.0mph /  8km/h 12.0mph /  19.3km/h 59% 0.00in /  0mm
15:04 46.6 °F /  8.1 °C 33.5 °F /  0.8 °C 29.73in /  1006.7hPa NNW 6.0mph /  9.7km/h 17.0mph /  27.4km/h 60% 0.00in /  0mm
15:09 46.2 °F /  7.9 °C 33.5 °F /  0.8 °C 29.73in /  1006.7hPa NNW 6.0mph /  9.7km/h 17.0mph /  27.4km/h 61% 0.00in /  0mm
15:14 46.0 °F /  7.8 °C 33.3 °F /  0.7 °C 29.73in /  1006.7hPa NNW 7.0mph /  11.3km/h 16.0mph /  25.7km/h 61% 0.00in /  0mm
15:19 46.1 °F /  7.8 °C 33.4 °F /  0.8 °C 29.74in /  1007hPa NNW 5.0mph /  8km/h 15.0mph /  24.1km/h 61% 0.00in /  0mm
15:24 45.9 °F /  7.7 °C 33.2 °F /  0.7 °C 29.74in /  1007hPa NNW 7.0mph /  11.3km/h 14.0mph /  22.5km/h 61% 0.00in /  0mm
15:29 45.7 °F /  7.6 °C 33.4 °F /  0.8 °C 29.74in /  1007hPa NNW 8.0mph /  12.9km/h 17.0mph /  27.4km/h 62% 0.00in /  0mm
15:35 45.6 °F /  7.6 °C 33.3 °F /  0.7 °C 29.74in /  1007hPa NNW 4.0mph /  6.4km/h 17.0mph /  27.4km/h 62% 0.00in /  0mm
15:39 45.7 °F /  7.6 °C 33.4 °F /  0.8 °C 29.74in /  1007hPa NNW 2.0mph /  3.2km/h 12.0mph /  19.3km/h 62% 0.00in /  0mm
15:44 45.7 °F /  7.6 °C 33.0 °F /  0.6 °C 29.75in /  1007.3hPa NNW 7.0mph /  11.3km/h 15.0mph /  24.1km/h 61% 0.00in /  0mm
15:49 45.2 °F /  7.3 °C 32.6 °F /  0.3 °C 29.76in /  1007.7hPa NNW 10.0mph /  16.1km/h 17.0mph /  27.4km/h 61% 0.00in /  0mm
15:55 44.9 °F /  7.2 °C 32.7 °F /  0.4 °C 29.77in /  1008hPa NNW 9.0mph /  14.5km/h 17.0mph /  27.4km/h 62% 0.00in /  0mm
15:59 44.6 °F /  7 °C 32.4 °F /  0.2 °C 29.77in /  1008hPa NNW 7.0mph /  11.3km/h 16.0mph /  25.7km/h 62% 0.00in /  0mm
16:04 44.4 °F /  6.9 °C 32.6 °F /  0.3 °C 29.77in /  1008hPa NNW 4.0mph /  6.4km/h 15.0mph /  24.1km/h 63% 0.00in /  0mm
16:09 44.2 °F /  6.8 °C 32.4 °F /  0.2 °C 29.78in /  1008.4hPa NNW 3.0mph /  4.8km/h 12.0mph /  19.3km/h 63% 0.00in /  0mm
16:14 43.9 °F /  6.6 °C 32.1 °F /  0.1 °C 29.78in /  1008.4hPa North 3.0mph /  4.8km/h 10.0mph /  16.1km/h 63% 0.00in /  0mm
16:19 43.9 °F /  6.6 °C 32.1 °F /  0.1 °C 29.78in /  1008.4hPa NNW 4.0mph /  6.4km/h 12.0mph /  19.3km/h 63% 0.00in /  0mm
16:24 44.0 °F /  6.7 °C 31.8 °F /  -0.1 °C 29.78in /  1008.4hPa NNW 4.0mph /  6.4km/h 12.0mph /  19.3km/h 62% 0.00in /  0mm
16:29 43.9 °F /  6.6 °C 31.7 °F /  -0.2 °C 29.78in /  1008.4hPa NW 3.0mph /  4.8km/h 15.0mph /  24.1km/h 62% 0.00in /  0mm
16:34 43.7 °F /  6.5 °C 31.5 °F /  -0.3 °C 29.79in /  1008.7hPa NNW 4.0mph /  6.4km/h 15.0mph /  24.1km/h 62% 0.00in /  0mm
16:44 43.5 °F /  6.4 °C 30.9 °F /  -0.6 °C 29.79in /  1008.7hPa NNW 7.0mph /  11.3km/h 18.0mph /  29km/h 61% 0.00in /  0mm
16:49 43.6 °F /  6.4 °C 31.0 °F /  -0.6 °C 29.79in /  1008.7hPa NNW 9.0mph /  14.5km/h 18.0mph /  29km/h 61% 0.00in /  0mm
16:55 43.5 °F /  6.4 °C 30.5 °F /  -0.8 °C 29.80in /  1009hPa NNW 8.0mph /  12.9km/h 21.0mph /  33.8km/h 60% 0.00in /  0mm
16:59 43.4 °F /  6.3 °C 30.4 °F /  -0.9 °C 29.80in /  1009hPa NNW 8.0mph /  12.9km/h 23.0mph /  37km/h 60% 0.00in /  0mm
17:04 43.2 °F /  6.2 °C 30.3 °F /  -0.9 °C 29.80in /  1009hPa NW 8.0mph /  12.9km/h 23.0mph /  37km/h 60% 0.00in /  0mm
17:09 43.1 °F /  6.2 °C 29.7 °F /  -1.3 °C 29.80in /  1009hPa NNW 6.0mph /  9.7km/h 19.0mph /  30.6km/h 59% 0.00in /  0mm
17:14 43.0 °F /  6.1 °C 29.7 °F /  -1.3 °C 29.80in /  1009hPa NNW 6.0mph /  9.7km/h 19.0mph /  30.6km/h 59% 0.00in /  0mm
17:19 43.0 °F /  6.1 °C 29.7 °F /  -1.3 °C 29.81in /  1009.4hPa NNW 8.0mph /  12.9km/h 17.0mph /  27.4km/h 59% 0.00in /  0mm
17:24 43.0 °F /  6.1 °C 29.7 °F /  -1.3 °C 29.81in /  1009.4hPa NNW 7.0mph /  11.3km/h 17.0mph /  27.4km/h 59% 0.00in /  0mm
17:29 42.9 °F /  6.1 °C 29.1 °F /  -1.6 °C 29.81in /  1009.4hPa NW 9.0mph /  14.5km/h 16.0mph /  25.7km/h 58% 0.00in /  0mm
17:34 42.7 °F /  5.9 °C 29.4 °F /  -1.4 °C 29.81in /  1009.4hPa NNW 6.0mph /  9.7km/h 16.0mph /  25.7km/h 59% 0.00in /  0mm
17:39 42.4 °F /  5.8 °C 29.9 °F /  -1.2 °C 29.81in /  1009.4hPa NNW 5.0mph /  8km/h 13.0mph /  20.9km/h 61% 0.00in /  0mm
17:44 42.0 °F /  5.6 °C 30.3 °F /  -0.9 °C 29.82in /  1009.7hPa NNW 8.0mph /  12.9km/h 18.0mph /  29km/h 63% 0.00in /  0mm
17:49 41.8 °F /  5.4 °C 30.5 °F /  -0.8 °C 29.82in /  1009.7hPa North 5.0mph /  8km/h 18.0mph /  29km/h 64% 0.00in /  0mm
17:54 41.4 °F /  5.2 °C 30.5 °F /  -0.8 °C 29.82in /  1009.7hPa North 5.0mph /  8km/h 17.0mph /  27.4km/h 65% 0.00in /  0mm
17:59 41.1 °F /  5.1 °C 30.6 °F /  -0.8 °C 29.82in /  1009.7hPa NNW 4.0mph /  6.4km/h 15.0mph /  24.1km/h 66% 0.00in /  0mm
18:04 40.7 °F /  4.8 °C 30.2 °F /  -1 °C 29.83in /  1010hPa North 6.0mph /  9.7km/h 13.0mph /  20.9km/h 66% 0.00in /  0mm
18:09 40.5 °F /  4.7 °C 30.4 °F /  -0.9 °C 29.83in /  1010hPa North 3.0mph /  4.8km/h 17.0mph /  27.4km/h 67% 0.00in /  0mm
18:14 40.2 °F /  4.6 °C 30.5 °F /  -0.8 °C 29.83in /  1010hPa North 2.0mph /  3.2km/h 17.0mph /  27.4km/h 68% 0.00in /  0mm
18:19 39.9 °F /  4.4 °C 30.2 °F /  -1 °C 29.83in /  1010hPa North 7.0mph /  11.3km/h 13.0mph /  20.9km/h 68% 0.00in /  0mm
18:24 39.7 °F /  4.3 °C 30.0 °F /  -1.1 °C 29.84in /  1010.4hPa North 4.0mph /  6.4km/h 14.0mph /  22.5km/h 68% 0.00in /  0mm
18:30 39.4 °F /  4.1 °C 29.7 °F /  -1.3 °C 29.84in /  1010.4hPa NNE 4.0mph /  6.4km/h 14.0mph /  22.5km/h 68% 0.00in /  0mm
18:34 39.1 °F /  3.9 °C 29.4 °F /  -1.4 °C 29.84in /  1010.4hPa NNE 5.0mph /  8km/h 13.0mph /  20.9km/h 68% 0.00in /  0mm
18:39 38.8 °F /  3.8 °C 29.1 °F /  -1.6 °C 29.85in /  1010.7hPa NNW 5.0mph /  8km/h 12.0mph /  19.3km/h 68% 0.00in /  0mm
18:44 38.7 °F /  3.7 °C 29.1 °F /  -1.6 °C 29.86in /  1011.1hPa NNW 5.0mph /  8km/h 12.0mph /  19.3km/h 68% 0.00in /  0mm
18:49 38.6 °F /  3.7 °C 29.0 °F /  -1.7 °C 29.86in /  1011.1hPa North 4.0mph /  6.4km/h 12.0mph /  19.3km/h 68% 0.00in /  0mm
18:54 38.6 °F /  3.7 °C 29.0 °F /  -1.7 °C 29.87in /  1011.4hPa NNE 5.0mph /  8km/h 12.0mph /  19.3km/h 68% 0.00in /  0mm
18:59 38.4 °F /  3.6 °C 29.1 °F /  -1.6 °C 29.87in /  1011.4hPa NNE 1.0mph /  1.6km/h 12.0mph /  19.3km/h 69% 0.00in /  0mm
19:04 38.3 °F /  3.5 °C 29.0 °F /  -1.7 °C 29.87in /  1011.4hPa NNE 3.0mph /  4.8km/h 9.0mph /  14.5km/h 69% 0.00in /  0mm
19:09 38.1 °F /  3.4 °C 28.8 °F /  -1.8 °C 29.87in /  1011.4hPa NE 2.0mph /  3.2km/h 17.0mph /  27.4km/h 69% 0.00in /  0mm
19:14 38.0 °F /  3.3 °C 28.7 °F /  -1.8 °C 29.88in /  1011.7hPa North 1.0mph /  1.6km/h 17.0mph /  27.4km/h 69% 0.00in /  0mm
19:19 37.9 °F /  3.3 °C 29.0 °F /  -1.7 °C 29.88in /  1011.7hPa NE 1.0mph /  1.6km/h 11.0mph /  17.7km/h 70% 0.00in /  0mm
19:24 37.6 °F /  3.1 °C 28.7 °F /  -1.8 °C 29.88in /  1011.7hPa North 3.0mph /  4.8km/h 8.0mph /  12.9km/h 70% 0.00in /  0mm
19:29 37.5 °F /  3.1 °C 28.6 °F /  -1.9 °C 29.88in /  1011.7hPa North 3.0mph /  4.8km/h 8.0mph /  12.9km/h 70% 0.00in /  0mm
19:34 37.4 °F /  3 °C 28.9 °F /  -1.7 °C 29.88in /  1011.7hPa North 1.0mph /  1.6km/h 8.0mph /  12.9km/h 71% 0.00in /  0mm
19:39 37.2 °F /  2.9 °C 28.3 °F /  -2.1 °C 29.88in /  1011.7hPa NNW 3.0mph /  4.8km/h 8.0mph /  12.9km/h 70% 0.00in /  0mm
19:44 37.1 °F /  2.8 °C 28.6 °F /  -1.9 °C 29.88in /  1011.7hPa NNW 4.0mph /  6.4km/h 13.0mph /  20.9km/h 71% 0.00in /  0mm
19:49 37.1 °F /  2.8 °C 28.2 °F /  -2.1 °C 29.87in /  1011.4hPa North 2.0mph /  3.2km/h 13.0mph /  20.9km/h 70% 0.00in /  0mm
19:54 37.0 °F /  2.8 °C 28.5 °F /  -1.9 °C 29.88in /  1011.7hPa North 2.0mph /  3.2km/h 9.0mph /  14.5km/h 71% 0.00in /  0mm
19:59 36.9 °F /  2.7 °C 28.4 °F /  -2 °C 29.88in /  1011.7hPa North 2.0mph /  3.2km/h 9.0mph /  14.5km/h 71% 0.00in /  0mm
20:04 36.9 °F /  2.7 °C 28.0 °F /  -2.2 °C 29.88in /  1011.7hPa NNE 2.0mph /  3.2km/h 9.0mph /  14.5km/h 70% 0.00in /  0mm
20:09 36.8 °F /  2.7 °C 28.3 °F /  -2.1 °C 29.89in /  1012.1hPa NNE 3.0mph /  4.8km/h 9.0mph /  14.5km/h 71% 0.00in /  0mm
20:14 36.8 °F /  2.7 °C 27.9 °F /  -2.3 °C 29.89in /  1012.1hPa North 2.0mph /  3.2km/h 10.0mph /  16.1km/h 70% 0.00in /  0mm
20:19 36.8 °F /  2.7 °C 28.3 °F /  -2.1 °C 29.90in /  1012.4hPa North 2.0mph /  3.2km/h 10.0mph /  16.1km/h 71% 0.00in /  0mm
20:24 36.7 °F /  2.6 °C 27.8 °F /  -2.3 °C 29.90in /  1012.4hPa NNE 2.0mph /  3.2km/h 10.0mph /  16.1km/h 70% 0.00in /  0mm
20:29 36.6 °F /  2.6 °C 28.1 °F /  -2.2 °C 29.90in /  1012.4hPa North 1.0mph /  1.6km/h 9.0mph /  14.5km/h 71% 0.00in /  0mm
20:35 36.5 °F /  2.5 °C 28.3 °F /  -2.1 °C 29.90in /  1012.4hPa North 1.0mph /  1.6km/h 7.0mph /  11.3km/h 72% 0.00in /  0mm
20:39 36.4 °F /  2.4 °C 27.9 °F /  -2.3 °C 29.90in /  1012.4hPa NNW 2.0mph /  3.2km/h 7.0mph /  11.3km/h 71% 0.00in /  0mm
20:44 36.3 °F /  2.4 °C 28.1 °F /  -2.2 °C 29.90in /  1012.4hPa Calm   7.0mph /  11.3km/h 72% 0.00in /  0mm
20:49 36.2 °F /  2.3 °C 28.0 °F /  -2.2 °C 29.90in /  1012.4hPa NNW 1.0mph /  1.6km/h 4.0mph /  6.4km/h 72% 0.00in /  0mm
20:55 36.1 °F /  2.3 °C 28.3 °F /  -2.1 °C 29.90in /  1012.4hPa NNE 1.0mph /  1.6km/h 4.0mph /  6.4km/h 73% 0.00in /  0mm
21:04 35.9 °F /  2.2 °C 28.1 °F /  -2.2 °C 29.91in /  1012.8hPa NNW 1.0mph /  1.6km/h 8.0mph /  12.9km/h 73% 0.00in /  0mm
21:09 35.8 °F /  2.1 °C 28.0 °F /  -2.2 °C 29.91in /  1012.8hPa NNW 1.0mph /  1.6km/h 10.0mph /  16.1km/h 73% 0.00in /  0mm
21:14 35.8 °F /  2.1 °C 28.0 °F /  -2.2 °C 29.91in /  1012.8hPa NW 2.0mph /  3.2km/h 10.0mph /  16.1km/h 73% 0.00in /  0mm
21:19 35.8 °F /  2.1 °C 27.7 °F /  -2.4 °C 29.91in /  1012.8hPa NW 2.0mph /  3.2km/h 5.0mph /  8km/h 72% 0.00in /  0mm
21:24 35.7 °F /  2.1 °C 27.9 °F /  -2.3 °C 29.92in /  1013.1hPa WNW 2.0mph /  3.2km/h 6.0mph /  9.7km/h 73% 0.00in /  0mm
21:29 35.7 °F /  2.1 °C 27.6 °F /  -2.4 °C 29.92in /  1013.1hPa Calm   6.0mph /  9.7km/h 72% 0.00in /  0mm
21:34 35.6 °F /  2 °C 27.8 °F /  -2.3 °C 29.92in /  1013.1hPa Calm   6.0mph /  9.7km/h 73% 0.00in /  0mm
21:39 35.5 °F /  1.9 °C 27.4 °F /  -2.6 °C 29.92in /  1013.1hPa NW 3.0mph /  4.8km/h 9.0mph /  14.5km/h 72% 0.00in /  0mm
21:44 35.5 °F /  1.9 °C 27.4 °F /  -2.6 °C 29.92in /  1013.1hPa NNW 4.0mph /  6.4km/h 9.0mph /  14.5km/h 72% 0.00in /  0mm
21:49 35.5 °F /  1.9 °C 27.7 °F /  -2.4 °C 29.92in /  1013.1hPa NNW 4.0mph /  6.4km/h 9.0mph /  14.5km/h 73% 0.00in /  0mm
21:54 35.4 °F /  1.9 °C 27.3 °F /  -2.6 °C 29.92in /  1013.1hPa NNW 3.0mph /  4.8km/h 9.0mph /  14.5km/h 72% 0.00in /  0mm
21:59 35.4 °F /  1.9 °C 27.3 °F /  -2.6 °C 29.92in /  1013.1hPa NW 3.0mph /  4.8km/h 9.0mph /  14.5km/h 72% 0.00in /  0mm
22:04 35.3 °F /  1.8 °C 27.2 °F /  -2.7 °C 29.93in /  1013.4hPa NNW 4.0mph /  6.4km/h 10.0mph /  16.1km/h 72% 0.00in /  0mm
22:09 35.3 °F /  1.8 °C 27.2 °F /  -2.7 °C 29.93in /  1013.4hPa NNW 2.0mph /  3.2km/h 10.0mph /  16.1km/h 72% 0.00in /  0mm
22:14 35.2 °F /  1.8 °C 27.4 °F /  -2.6 °C 29.93in /  1013.4hPa NNW 1.0mph /  1.6km/h 6.0mph /  9.7km/h 73% 0.00in /  0mm
22:19 35.0 °F /  1.7 °C 27.6 °F /  -2.4 °C 29.93in /  1013.4hPa NNW 1.0mph /  1.6km/h 3.0mph /  4.8km/h 74% 0.00in /  0mm
22:24 34.9 °F /  1.6 °C 27.5 °F /  -2.5 °C 29.93in /  1013.4hPa NW 1.0mph /  1.6km/h 5.0mph /  8km/h 74% 0.00in /  0mm
22:29 34.8 °F /  1.6 °C 27.0 °F /  -2.8 °C 29.93in /  1013.4hPa NNW 4.0mph /  6.4km/h 7.0mph /  11.3km/h 73% 0.00in /  0mm
22:35 34.8 °F /  1.6 °C 27.0 °F /  -2.8 °C 29.93in /  1013.4hPa NW 2.0mph /  3.2km/h 7.0mph /  11.3km/h 73% 0.00in /  0mm
22:44 34.8 °F /  1.6 °C 27.0 °F /  -2.8 °C 29.93in /  1013.4hPa NNW 4.0mph /  6.4km/h 7.0mph /  11.3km/h 73% 0.00in /  0mm
22:49 34.8 °F /  1.6 °C 27.0 °F /  -2.8 °C 29.93in /  1013.4hPa North 3.0mph /  4.8km/h 7.0mph /  11.3km/h 73% 0.00in /  0mm
22:54 34.7 °F /  1.5 °C 26.9 °F /  -2.8 °C 29.94in /  1013.8hPa NW 5.0mph /  8km/h 7.0mph /  11.3km/h 73% 0.00in /  0mm
22:59 34.7 °F /  1.5 °C 26.9 °F /  -2.8 °C 29.94in /  1013.8hPa NNW 3.0mph /  4.8km/h 9.0mph /  14.5km/h 73% 0.00in /  0mm
23:04 34.6 °F /  1.4 °C 26.8 °F /  -2.9 °C 29.94in /  1013.8hPa NW 4.0mph /  6.4km/h 9.0mph /  14.5km/h 73% 0.00in /  0mm
23:09 34.5 °F /  1.4 °C 26.7 °F /  -2.9 °C 29.94in /  1013.8hPa NW 2.0mph /  3.2km/h 7.0mph /  11.3km/h 73% 0.00in /  0mm
23:14 34.4 °F /  1.3 °C 26.6 °F /  -3 °C 29.94in /  1013.8hPa NW 1.0mph /  1.6km/h 7.0mph /  11.3km/h 73% 0.00in /  0mm
23:19 34.4 °F /  1.3 °C 26.6 °F /  -3 °C 29.93in /  1013.4hPa NNW 2.0mph /  3.2km/h 8.0mph /  12.9km/h 73% 0.00in /  0mm
23:24 34.4 °F /  1.3 °C 26.6 °F /  -3 °C 29.93in /  1013.4hPa NNW 4.0mph /  6.4km/h 8.0mph /  12.9km/h 73% 0.00in /  0mm
23:29 34.4 °F /  1.3 °C 26.6 °F /  -3 °C 29.94in /  1013.8hPa NW 3.0mph /  4.8km/h 6.0mph /  9.7km/h 73% 0.00in /  0mm
23:34 34.4 °F /  1.3 °C 27.0 °F /  -2.8 °C 29.94in /  1013.8hPa Calm   6.0mph /  9.7km/h 74% 0.00in /  0mm
23:39 34.4 °F /  1.3 °C 27.0 °F /  -2.8 °C 29.93in /  1013.4hPa NW 2.0mph /  3.2km/h 7.0mph /  11.3km/h 74% 0.00in /  0mm
23:44 34.3 °F /  1.3 °C 26.9 °F /  -2.8 °C 29.93in /  1013.4hPa NNW 2.0mph /  3.2km/h 8.0mph /  12.9km/h 74% 0.00in /  0mm
23:49 34.2 °F /  1.2 °C 26.8 °F /  -2.9 °C 29.93in /  1013.4hPa NNW 2.0mph /  3.2km/h 11.0mph /  17.7km/h 74% 0.00in /  0mm
23:54 34.1 °F /  1.2 °C 26.7 °F /  -2.9 °C 29.93in /  1013.4hPa North 3.0mph /  4.8km/h 11.0mph /  17.7km/h 74% 0.00in /  0mm
23:59 34.0 °F /  1.1 °C 26.9 °F /  -2.8 °C 29.92in /  1013.1hPa NNE 3.0mph /  4.8km/h 8.0mph /  12.9km/h 75% 0.00in /  0mm
Westford Weather
Compliments of Weather Underground

 
 
Current Radar Loop:

Copyright © WestfordWeather.net 2007-2014. All rights reserved.